Time;durP1;ratioP1;P1;durP2;ratioP2;P2;SDS_P1;SDS_P2;PMS_P1;PMS_P2;Temp;Humidity;BMP_temperature;BMP_pressure;BME280_temperature;BME280_humidity;BME280_pressure;Samples;Min_cycle;Max_cycle;Signal;HPM_P1;HPM_P2
2022/12/24 00:00:00;;;;;;;38.45;7.43;;;;;;;;;;5008417;28;98278;-76
2022/12/24 00:02:26;;;;;;;39.92;6.20;;;;;;;;;;5008669;28;99780;-77
2022/12/24 00:04:53;;;;;;;36.15;6.85;;;;;;;;;;5008850;28;100054;-77
2022/12/24 00:07:26;;;;;;;40.05;5.78;;;;;;;;;;5007161;28;98668;-76
2022/12/24 00:09:52;;;;;;;36.92;6.03;;;;;;;;;;5008613;28;98615;-76
2022/12/24 00:12:19;;;;;;;38.00;5.57;;;;;;;;;;5011497;28;98979;-76
2022/12/24 00:14:45;;;;;;;35.72;5.40;;;;;;;;;;5007837;28;98517;-78
2022/12/24 00:17:11;;;;;;;37.15;6.72;;;;;;;;;;5007808;28;100023;-77
2022/12/24 00:19:38;;;;;;;38.55;6.22;;;;;;;;;;5008823;28;99160;-77
2022/12/24 00:22:04;;;;;;;26.80;5.40;;;;;;;;;;5008181;28;99739;-77
2022/12/24 00:24:31;;;;;;;31.73;5.28;;;;;;;;;;5007810;28;99111;-78
2022/12/24 00:26:57;;;;;;;36.60;6.47;;;;;;;;;;5008574;28;98724;-77
2022/12/24 00:29:23;;;;;;;29.63;5.78;;;;;;;;;;5006520;28;99967;-77
2022/12/24 00:31:50;;;;;;;43.03;6.95;;;;;;;;;;5011501;28;99159;-76
2022/12/24 00:34:16;;;;;;;32.08;6.57;;;;;;;;;;5007746;28;98746;-76
2022/12/24 00:36:43;;;;;;;37.92;7.03;;;;;;;;;;5007736;28;100441;-76
2022/12/24 00:39:09;;;;;;;38.80;6.93;;;;;;;;;;5008500;28;98934;-76
2022/12/24 00:41:35;;;;;;;34.10;5.63;;;;;;;;;;5006643;28;100136;-78
2022/12/24 00:44:04;;;;;;;32.10;5.68;;;;;;;;;;5008299;28;100053;-76
2022/12/24 00:46:31;;;;;;;39.53;7.13;;;;;;;;;;5007821;28;98397;-77
2022/12/24 00:48:58;;;;;;;36.67;7.25;;;;;;;;;;5007671;28;98402;-76
2022/12/24 00:51:25;;;;;;;35.85;7.10;;;;;;;;;;5007608;28;98176;-77
2022/12/24 00:53:52;;;;;;;41.92;5.65;;;;;;;;;;5011410;28;98330;-77
2022/12/24 00:56:19;;;;;;;36.17;6.32;;;;;;;;;;5007028;28;99283;-77
2022/12/24 00:58:45;;;;;;;35.05;5.93;;;;;;;;;;5008439;28;98240;-76
2022/12/24 01:01:12;;;;;;;35.97;7.95;;;;;;;;;;5008372;28;99677;-76
2022/12/24 01:03:38;;;;;;;37.72;5.85;;;;;;;;;;5007157;28;100158;-76
2022/12/24 01:06:09;;;;;;;48.83;6.45;;;;;;;;;;5007011;28;98062;-77
2022/12/24 01:08:35;;;;;;;36.50;6.30;;;;;;;;;;5007806;28;98464;-76
2022/12/24 01:11:02;;;;;;;36.00;7.05;;;;;;;;;;5007082;28;100138;-77
2022/12/24 01:13:29;;;;;;;40.95;8.25;;;;;;;;;;5007712;28;98286;-77
2022/12/24 01:15:55;;;;;;;40.00;6.43;;;;;;;;;;5010958;28;99672;-77
2022/12/24 01:18:22;;;;;;;41.50;7.00;;;;;;;;;;5007197;28;98344;-76
2022/12/24 01:20:59;;;;;;;47.22;9.35;;;;;;;;;;5007846;28;99110;-76
2022/12/24 01:23:25;;;;;;;40.38;7.32;;;;;;;;;;5006925;28;100044;-77
2022/12/24 01:25:52;;;;;;;35.05;6.22;;;;;;;;;;5007762;28;98308;-78
2022/12/24 01:28:19;;;;;;;44.90;7.03;;;;;;;;;;5007341;28;98780;-77
2022/12/24 01:30:45;;;;;;;44.17;7.05;;;;;;;;;;5005786;28;99961;-77
2022/12/24 01:33:12;;;;;;;41.25;6.78;;;;;;;;;;5007532;28;98379;-76
2022/12/24 01:35:39;;;;;;;42.47;7.72;;;;;;;;;;5006887;28;98975;-76
2022/12/24 01:38:06;;;;;;;45.35;7.30;;;;;;;;;;5009845;28;100006;-76
2022/12/24 01:43:32;;;;;;;28.70;5.60;;;;;;;;;;4994364;28;101057;-76
2022/12/24 01:46:00;;;;;;;56.70;7.75;;;;;;;;;;5006582;28;98268;-76
2022/12/24 01:48:34;;;;;;;43.10;6.80;;;;;;;;;;5007138;28;99361;-76
2022/12/24 01:51:06;;;;;;;51.67;7.47;;;;;;;;;;5006998;28;99032;-78
2022/12/24 01:53:34;;;;;;;34.88;7.50;;;;;;;;;;5006571;28;98344;-78
2022/12/24 01:56:00;;;;;;;39.55;6.32;;;;;;;;;;5006363;28;99533;-78
2022/12/24 01:58:27;;;;;;;44.45;6.90;;;;;;;;;;5005899;28;99865;-77
2022/12/24 02:00:53;;;;;;;55.50;7.45;;;;;;;;;;5010626;28;98618;-77
2022/12/24 02:03:20;;;;;;;47.97;7.28;;;;;;;;;;5006620;28;98916;-77
2022/12/24 02:05:48;;;;;;;56.42;8.07;;;;;;;;;;5006376;28;99007;-76
2022/12/24 02:08:15;;;;;;;56.35;8.50;;;;;;;;;;5006765;28;99563;-76
2022/12/24 02:10:42;;;;;;;47.58;6.55;;;;;;;;;;5005951;28;99141;-76
2022/12/24 02:13:09;;;;;;;54.53;8.27;;;;;;;;;;5006843;28;98808;-76
2022/12/24 02:15:56;;;;;;;41.47;7.65;;;;;;;;;;5006659;28;99485;-77
2022/12/24 02:18:30;;;;;;;49.22;7.15;;;;;;;;;;5007351;28;100575;-77
2022/12/24 02:21:15;;;;;;;46.97;7.93;;;;;;;;;;5008860;28;98273;-77
2022/12/24 02:23:52;;;;;;;59.03;8.32;;;;;;;;;;5013257;28;99914;-77
2022/12/24 02:26:36;;;;;;;42.15;7.57;;;;;;;;;;5010376;28;98442;-77
2022/12/24 02:29:21;;;;;;;49.75;6.93;;;;;;;;;;5010492;28;99409;-77
2022/12/24 02:32:00;;;;;;;49.33;7.45;;;;;;;;;;5009558;28;99443;-76
2022/12/24 02:34:52;;;;;;;50.65;6.55;;;;;;;;;;5009642;28;98335;-77
2022/12/24 02:37:25;;;;;;;46.67;7.75;;;;;;;;;;5010282;28;98893;-77
2022/12/24 02:40:07;;;;;;;59.45;9.07;;;;;;;;;;5010405;28;100171;-77
2022/12/24 02:42:43;;;;;;;46.63;8.20;;;;;;;;;;5009341;28;98457;-77
2022/12/24 02:45:12;;;;;;;56.35;7.93;;;;;;;;;;5012846;28;98462;-77
2022/12/24 02:47:39;;;;;;;56.65;8.45;;;;;;;;;;5008237;28;98341;-77
2022/12/24 02:50:07;;;;;;;54.20;7.28;;;;;;;;;;5009767;28;100933;-77
2022/12/24 02:52:41;;;;;;;54.63;8.00;;;;;;;;;;5009192;28;98935;-77
2022/12/24 02:55:12;;;;;;;53.40;7.00;;;;;;;;;;5009290;28;98309;-77
2022/12/24 02:57:38;;;;;;;46.75;7.00;;;;;;;;;;5009832;28;99729;-76
2022/12/24 03:00:09;;;;;;;58.83;7.93;;;;;;;;;;5009613;28;100414;-77
2022/12/24 03:02:55;;;;;;;65.60;8.20;;;;;;;;;;5009143;28;98293;-76
2022/12/24 03:05:27;;;;;;;61.92;7.65;;;;;;;;;;5010200;28;99541;-77
2022/12/24 03:07:57;;;;;;;46.78;6.95;;;;;;;;;;5012778;28;100350;-76
2022/12/24 03:10:42;;;;;;;56.78;8.18;;;;;;;;;;5008793;28;99918;-77
2022/12/24 03:13:12;;;;;;;45.38;6.35;;;;;;;;;;5008679;28;100282;-76
2022/12/24 03:15:42;;;;;;;50.92;6.88;;;;;;;;;;5009112;28;98204;-76
2022/12/24 03:18:10;;;;;;;43.22;7.35;;;;;;;;;;5009098;28;98700;-76
2022/12/24 03:20:40;;;;;;;51.92;7.25;;;;;;;;;;5009506;28;99330;-77
2022/12/24 03:23:07;;;;;;;48.55;6.43;;;;;;;;;;5009331;28;98341;-77
2022/12/24 03:25:33;;;;;;;42.90;6.82;;;;;;;;;;5009912;28;99338;-77
2022/12/24 03:28:01;;;;;;;50.55;7.68;;;;;;;;;;5009548;28;99962;-77
2022/12/24 03:30:28;;;;;;;42.13;6.90;;;;;;;;;;5011352;28;98256;-77
2022/12/24 03:32:54;;;;;;;56.97;8.02;;;;;;;;;;5009445;28;100123;-76
2022/12/24 03:35:20;;;;;;;59.70;7.30;;;;;;;;;;5009411;28;98245;-76
2022/12/24 03:37:47;;;;;;;53.13;7.20;;;;;;;;;;5007573;28;99558;-76
2022/12/24 03:40:13;;;;;;;47.67;7.10;;;;;;;;;;5008859;28;99956;-77
2022/12/24 03:42:40;;;;;;;51.17;7.10;;;;;;;;;;5008420;28;98314;-76
2022/12/24 03:45:06;;;;;;;43.50;7.72;;;;;;;;;;5008853;28;99528;-76
2022/12/24 03:47:33;;;;;;;50.28;7.47;;;;;;;;;;5008702;28;100020;-76
2022/12/24 03:49:59;;;;;;;50.58;6.88;;;;;;;;;;5009370;28;98275;-77
2022/12/24 03:52:25;;;;;;;49.08;7.60;;;;;;;;;;5010906;28;99684;-77
2022/12/24 03:54:52;;;;;;;53.95;6.72;;;;;;;;;;5009087;28;98279;-76
2022/12/24 03:57:18;;;;;;;55.25;7.88;;;;;;;;;;5009011;28;100099;-78
2022/12/24 03:59:44;;;;;;;56.70;7.60;;;;;;;;;;5007468;28;99039;-76
2022/12/24 04:02:11;;;;;;;66.55;8.02;;;;;;;;;;5008198;28;98347;-76
2022/12/24 04:04:38;;;;;;;55.50;7.93;;;;;;;;;;5009092;28;99581;-76
2022/12/24 04:07:04;;;;;;;55.67;7.78;;;;;;;;;;5007896;28;100044;-77
2022/12/24 04:09:31;;;;;;;44.97;6.78;;;;;;;;;;5008550;28;98226;-77
2022/12/24 04:11:57;;;;;;;50.20;7.07;;;;;;;;;;5008784;28;99508;-77
2022/12/24 04:14:24;;;;;;;46.63;7.50;;;;;;;;;;5010721;28;99274;-76
2022/12/24 04:16:50;;;;;;;62.13;8.23;;;;;;;;;;5008418;28;98757;-78
2022/12/24 04:19:17;;;;;;;58.33;7.75;;;;;;;;;;5008272;28;98732;-78
2022/12/24 04:21:43;;;;;;;62.72;7.30;;;;;;;;;;5008394;28;98280;-78
2022/12/24 04:24:10;;;;;;;56.85;9.38;;;;;;;;;;5008607;28;99487;-78
2022/12/24 04:26:36;;;;;;;76.35;8.10;;;;;;;;;;5006964;28;100080;-78
2022/12/24 04:29:02;;;;;;;65.07;8.20;;;;;;;;;;5008503;28;98275;-76
2022/12/24 04:31:29;;;;;;;62.50;8.95;;;;;;;;;;5008164;28;99490;-77
2022/12/24 04:33:55;;;;;;;72.13;9.07;;;;;;;;;;5007410;28;99119;-76
2022/12/24 04:36:21;;;;;;;66.10;8.85;;;;;;;;;;5011683;28;98155;-77
2022/12/24 04:38:48;;;;;;;60.17;9.70;;;;;;;;;;5007999;28;99977;-76
2022/12/24 04:41:16;;;;;;;57.67;8.35;;;;;;;;;;5006798;28;98098;-76
2022/12/24 04:43:50;;;;;;;59.60;7.97;;;;;;;;;;5008286;28;98673;-76
2022/12/24 04:46:18;;;;;;;52.67;7.85;;;;;;;;;;5008061;28;100378;-77
2022/12/24 04:48:46;;;;;;;61.90;9.85;;;;;;;;;;5007339;28;98307;-76
2022/12/24 04:51:13;;;;;;;53.72;8.13;;;;;;;;;;5007112;28;99373;-76
2022/12/24 04:53:39;;;;;;;55.30;9.82;;;;;;;;;;5007650;28;100176;-77
2022/12/24 04:56:07;;;;;;;55.78;8.00;;;;;;;;;;5010685;28;98600;-76
2022/12/24 04:58:34;;;;;;;53.17;7.75;;;;;;;;;;5007689;28;100172;-76
2022/12/24 05:01:04;;;;;;;50.90;7.65;;;;;;;;;;5007804;28;98311;-77
2022/12/24 05:03:31;;;;;;;57.90;7.80;;;;;;;;;;5006974;28;100598;-77
2022/12/24 05:06:04;;;;;;;48.38;7.20;;;;;;;;;;5007077;28;99157;-77
2022/12/24 05:08:30;;;;;;;52.33;8.48;;;;;;;;;;5006853;28;98284;-77
2022/12/24 05:10:57;;;;;;;53.70;7.63;;;;;;;;;;5007816;28;99455;-77
2022/12/24 05:13:24;;;;;;;53.17;7.40;;;;;;;;;;5007201;28;100032;-77
2022/12/24 05:16:01;;;;;;;53.85;7.43;;;;;;;;;;5006140;28;98265;-77
2022/12/24 05:18:28;;;;;;;56.33;8.35;;;;;;;;;;5010612;28;99304;-77
2022/12/24 05:20:54;;;;;;;62.38;7.95;;;;;;;;;;5007973;28;98295;-77
2022/12/24 05:26:22;;;;;;;48.33;7.82;;;;;;;;;;5007814;28;99151;-76
2022/12/24 05:28:49;;;;;;;47.70;7.53;;;;;;;;;;5007525;28;98424;-77
2022/12/24 05:31:15;;;;;;;52.85;6.53;;;;;;;;;;5006845;28;99323;-76
2022/12/24 05:33:42;;;;;;;56.72;7.95;;;;;;;;;;5007215;28;100242;-76
2022/12/24 05:36:08;;;;;;;59.90;8.55;;;;;;;;;;5007432;28;98974;-76
2022/12/24 05:38:35;;;;;;;62.63;7.38;;;;;;;;;;5006739;28;99409;-76
2022/12/24 05:41:01;;;;;;;56.15;7.43;;;;;;;;;;5010038;28;99131;-77
2022/12/24 05:43:28;;;;;;;53.92;6.57;;;;;;;;;;5006966;28;98560;-77
2022/12/24 05:45:58;;;;;;;47.28;7.30;;;;;;;;;;5007976;28;100166;-77
2022/12/24 05:48:24;;;;;;;58.08;6.82;;;;;;;;;;5007097;28;98315;-78
2022/12/24 05:50:51;;;;;;;50.83;8.20;;;;;;;;;;5006891;28;99469;-76
2022/12/24 05:53:19;;;;;;;70.07;9.68;;;;;;;;;;5006688;28;98953;-77
2022/12/24 05:55:45;;;;;;;64.47;9.60;;;;;;;;;;5007118;28;98306;-78
2022/12/24 05:58:11;;;;;;;47.10;6.65;;;;;;;;;;5007005;28;99888;-77
2022/12/24 06:00:38;;;;;;;48.63;7.32;;;;;;;;;;5006921;28;99995;-77
2022/12/24 06:03:04;;;;;;;45.03;6.53;;;;;;;;;;5010499;28;98309;-77
2022/12/24 06:05:31;;;;;;;50.22;7.43;;;;;;;;;;5005172;28;99883;-77
2022/12/24 06:07:57;;;;;;;51.78;7.80;;;;;;;;;;5006378;28;98447;-77
2022/12/24 06:10:23;;;;;;;55.72;8.00;;;;;;;;;;5006499;28;99419;-77
2022/12/24 06:12:50;;;;;;;62.83;9.20;;;;;;;;;;5005923;28;99142;-77
2022/12/24 06:15:16;;;;;;;60.58;8.35;;;;;;;;;;5006922;28;98278;-77
2022/12/24 06:17:49;;;;;;;54.40;8.85;;;;;;;;;;5006949;28;99653;-78
2022/12/24 06:20:15;;;;;;;49.40;7.90;;;;;;;;;;5006113;28;100008;-77
2022/12/24 06:22:42;;;;;;;55.92;7.55;;;;;;;;;;5006726;28;98279;-77
2022/12/24 06:25:08;;;;;;;67.07;8.05;;;;;;;;;;5009854;28;99717;-77
2022/12/24 06:27:34;;;;;;;54.97;7.82;;;;;;;;;;5005391;28;98402;-77
2022/12/24 06:30:01;;;;;;;61.78;9.18;;;;;;;;;;5006048;28;99513;-76
2022/12/24 06:32:27;;;;;;;67.05;8.15;;;;;;;;;;5005998;28;99127;-78
2022/12/24 06:34:54;;;;;;;59.95;9.27;;;;;;;;;;5005984;28;98963;-78
2022/12/24 06:37:20;;;;;;;74.95;9.23;;;;;;;;;;5006699;28;99574;-76
2022/12/24 06:39:46;;;;;;;55.75;8.15;;;;;;;;;;5005220;28;99932;-76
2022/12/24 06:42:13;;;;;;;68.63;9.65;;;;;;;;;;5006750;28;99149;-76
2022/12/24 06:44:39;;;;;;;61.00;9.65;;;;;;;;;;5006284;28;98741;-76
2022/12/24 06:47:06;;;;;;;62.22;8.82;;;;;;;;;;5009028;28;98575;-76
2022/12/24 06:49:32;;;;;;;78.43;10.25;;;;;;;;;;5005985;28;98480;-76
2022/12/24 06:51:58;;;;;;;56.03;8.00;;;;;;;;;;5005795;28;100073;-76
2022/12/24 06:54:25;;;;;;;70.75;9.48;;;;;;;;;;5005022;28;98248;-76
2022/12/24 06:56:51;;;;;;;67.85;8.02;;;;;;;;;;5006325;28;98618;-76
2022/12/24 06:59:17;;;;;;;76.03;10.00;;;;;;;;;;5006244;28;99099;-76
2022/12/24 07:01:44;;;;;;;90.18;11.00;;;;;;;;;;5005429;28;98250;-76
2022/12/24 07:04:10;;;;;;;83.97;11.00;;;;;;;;;;5007057;28;98691;-76
2022/12/24 07:06:45;;;;;;;76.88;10.52;;;;;;;;;;5012566;28;100048;-76
2022/12/24 07:09:13;;;;;;;75.53;9.70;;;;;;;;;;5008784;28;98925;-76
2022/12/24 07:11:39;;;;;;;68.25;10.38;;;;;;;;;;5009434;28;100320;-76
2022/12/24 07:14:06;;;;;;;76.50;10.75;;;;;;;;;;5009192;28;98334;-76
2022/12/24 07:16:32;;;;;;;71.32;9.35;;;;;;;;;;5008947;28;98686;-77
2022/12/24 07:18:59;;;;;;;67.95;10.27;;;;;;;;;;5008800;28;100375;-76
2022/12/24 07:21:25;;;;;;;69.90;8.88;;;;;;;;;;5008500;28;98306;-77
2022/12/24 07:23:52;;;;;;;81.68;9.55;;;;;;;;;;5009022;28;98575;-77
2022/12/24 07:26:18;;;;;;;69.22;8.60;;;;;;;;;;5009405;28;100452;-76
2022/12/24 07:28:44;;;;;;;70.88;9.35;;;;;;;;;;5012489;28;98288;-76
2022/12/24 07:31:11;;;;;;;60.20;10.00;;;;;;;;;;5008475;28;99966;-76
2022/12/24 07:33:37;;;;;;;81.78;10.40;;;;;;;;;;5008985;28;98813;-76
2022/12/24 07:36:05;;;;;;;69.50;9.63;;;;;;;;;;5008899;28;99498;-76
2022/12/24 07:38:32;;;;;;;73.13;9.82;;;;;;;;;;5008740;28;100131;-76
2022/12/24 07:40:59;;;;;;;67.35;10.57;;;;;;;;;;5009400;28;98889;-76
2022/12/24 07:43:26;;;;;;;80.65;12.23;;;;;;;;;;5007393;28;99639;-77
2022/12/24 07:45:56;;;;;;;71.93;11.45;;;;;;;;;;5008940;28;100453;-77
2022/12/24 07:48:23;;;;;;;67.65;10.23;;;;;;;;;;5009186;28;98277;-77
2022/12/24 07:50:50;;;;;;;64.30;9.70;;;;;;;;;;5010988;28;98568;-76
2022/12/24 07:53:17;;;;;;;69.88;9.60;;;;;;;;;;5008867;28;98297;-76
2022/12/24 07:55:43;;;;;;;79.00;10.68;;;;;;;;;;5008633;28;99362;-76
2022/12/24 07:58:10;;;;;;;63.22;9.73;;;;;;;;;;5008217;28;99952;-76
2022/12/24 08:00:36;;;;;;;70.70;10.75;;;;;;;;;;5010174;28;98354;-76
2022/12/24 08:03:03;;;;;;;76.40;10.30;;;;;;;;;;5009543;28;99027;-76
2022/12/24 08:05:33;;;;;;;65.80;10.52;;;;;;;;;;5009190;28;100021;-76
2022/12/24 08:08:00;;;;;;;82.05;10.68;;;;;;;;;;5008031;28;98892;-76
2022/12/24 08:10:26;;;;;;;77.13;9.75;;;;;;;;;;5008535;28;98732;-77
2022/12/24 08:12:52;;;;;;;73.15;9.68;;;;;;;;;;5010976;28;99198;-77
2022/12/24 08:15:19;;;;;;;69.50;8.75;;;;;;;;;;5008133;28;98733;-76
2022/12/24 08:17:45;;;;;;;58.75;8.40;;;;;;;;;;5007988;28;99057;-76
2022/12/24 08:20:11;;;;;;;68.63;8.40;;;;;;;;;;5008025;28;98400;-76
2022/12/24 08:22:38;;;;;;;68.38;8.65;;;;;;;;;;5008332;28;99447;-77
2022/12/24 08:25:04;;;;;;;63.35;9.52;;;;;;;;;;5008463;28;99151;-77
2022/12/24 08:27:31;;;;;;;59.17;9.57;;;;;;;;;;5007255;28;98375;-76
2022/12/24 08:29:57;;;;;;;66.32;9.38;;;;;;;;;;5008390;28;99341;-77
2022/12/24 08:32:24;;;;;;;65.05;8.73;;;;;;;;;;5006623;28;100613;-77
2022/12/24 08:34:50;;;;;;;55.33;8.23;;;;;;;;;;5011491;28;98319;-76
2022/12/24 08:37:16;;;;;;;63.20;8.68;;;;;;;;;;5008252;28;100005;-76
2022/12/24 08:39:43;;;;;;;57.80;9.65;;;;;;;;;;5007494;28;98275;-76
2022/12/24 08:42:09;;;;;;;62.88;9.85;;;;;;;;;;5008160;28;98806;-77
2022/12/24 08:44:35;;;;;;;67.10;9.57;;;;;;;;;;5007263;28;98860;-76
2022/12/24 08:47:02;;;;;;;63.33;9.00;;;;;;;;;;5007324;28;98374;-77
2022/12/24 08:49:28;;;;;;;61.88;9.48;;;;;;;;;;5007721;28;98733;-76
2022/12/24 08:51:55;;;;;;;69.13;10.13;;;;;;;;;;5007725;28;100035;-76
2022/12/24 08:54:22;;;;;;;58.17;9.23;;;;;;;;;;5010691;28;98340;-76
2022/12/24 08:56:48;;;;;;;56.08;9.13;;;;;;;;;;5007217;28;99957;-76
2022/12/24 08:59:15;;;;;;;59.80;10.00;;;;;;;;;;5007825;28;98403;-77
2022/12/24 09:01:41;;;;;;;54.45;8.27;;;;;;;;;;5006978;28;99446;-76
2022/12/24 09:04:08;;;;;;;67.18;9.18;;;;;;;;;;5007316;28;98989;-76
2022/12/24 09:06:35;;;;;;;58.28;10.35;;;;;;;;;;5007024;28;98328;-76
2022/12/24 09:09:02;;;;;;;61.40;9.15;;;;;;;;;;5005981;28;98561;-76
2022/12/24 09:11:28;;;;;;;56.25;11.05;;;;;;;;;;5006978;28;99314;-76
2022/12/24 09:13:55;;;;;;;58.15;9.35;;;;;;;;;;5007200;28;98365;-78
2022/12/24 09:16:22;;;;;;;60.00;9.75;;;;;;;;;;5010359;28;98620;-78
2022/12/24 09:18:49;;;;;;;64.90;11.20;;;;;;;;;;5008067;28;98089;-77
2022/12/24 09:21:16;;;;;;;68.40;10.35;;;;;;;;;;5007015;28;99489;-78
2022/12/24 09:23:43;;;;;;;54.38;8.20;;;;;;;;;;5006153;28;98995;-75
2022/12/24 09:26:13;;;;;;;54.75;9.18;;;;;;;;;;5007362;28;98418;-75
2022/12/24 09:28:40;;;;;;;58.72;9.02;;;;;;;;;;5006342;28;98664;-76
2022/12/24 09:31:06;;;;;;;76.22;9.95;;;;;;;;;;5007417;28;100198;-76
2022/12/24 09:33:34;;;;;;;57.38;8.48;;;;;;;;;;5007281;28;98275;-76
2022/12/24 09:36:01;;;;;;;68.07;10.63;;;;;;;;;;5006996;28;99628;-77
2022/12/24 09:38:27;;;;;;;60.65;8.70;;;;;;;;;;5010570;28;100075;-76
2022/12/24 09:40:54;;;;;;;66.70;9.68;;;;;;;;;;5007334;28;99518;-77
2022/12/24 09:43:22;;;;;;;59.30;9.55;;;;;;;;;;5006724;28;99852;-77
2022/12/24 09:45:54;;;;;;;48.60;8.95;;;;;;;;;;5006554;28;98354;-76
2022/12/24 09:48:23;;;;;;;48.15;8.30;;;;;;;;;;5007642;28;99482;-77
2022/12/24 09:50:52;;;;;;;42.08;6.97;;;;;;;;;;5006637;28;99557;-77
2022/12/24 09:53:32;;;;;;;44.80;7.20;;;;;;;;;;5006940;28;98581;-77
2022/12/24 09:56:01;;;;;;;52.63;8.65;;;;;;;;;;5007345;28;99454;-76
2022/12/24 09:58:30;;;;;;;52.50;8.07;;;;;;;;;;5006353;28;99967;-77
2022/12/24 10:00:56;;;;;;;47.45;7.50;;;;;;;;;;5010643;28;98333;-76
2022/12/24 10:03:23;;;;;;;45.05;7.97;;;;;;;;;;5007056;28;99957;-76
2022/12/24 10:06:05;;;;;;;51.45;7.95;;;;;;;;;;5006344;28;98291;-76
2022/12/24 10:08:47;;;;;;;53.73;8.03;;;;;;;;;;5006787;28;99415;-76
2022/12/24 10:11:16;;;;;;;43.17;7.50;;;;;;;;;;5005630;28;100078;-76
2022/12/24 10:13:43;;;;;;;41.75;6.40;;;;;;;;;;5007003;28;99264;-76
2022/12/24 10:16:17;;;;;;;42.20;7.45;;;;;;;;;;5007237;28;98734;-77
2022/12/24 10:18:50;;;;;;;39.28;7.20;;;;;;;;;;5006297;28;99933;-77
2022/12/24 10:21:37;;;;;;;33.25;7.47;;;;;;;;;;5007719;28;98099;-76
2022/12/24 10:24:11;;;;;;;44.67;7.40;;;;;;;;;;5010435;28;99428;-74
2022/12/24 10:26:45;;;;;;;45.53;8.57;;;;;;;;;;5006545;28;98129;-76
2022/12/24 10:29:11;;;;;;;42.67;7.75;;;;;;;;;;5007262;28;99361;-76
2022/12/24 10:31:41;;;;;;;42.22;7.68;;;;;;;;;;5006388;28;100069;-77
2022/12/24 10:34:18;;;;;;;39.05;7.20;;;;;;;;;;5006205;28;98446;-76
2022/12/24 10:36:45;;;;;;;53.10;8.98;;;;;;;;;;5005866;28;99394;-76
2022/12/24 10:39:19;;;;;;;59.28;7.88;;;;;;;;;;5006424;28;100203;-76
2022/12/24 10:41:47;;;;;;;44.20;7.22;;;;;;;;;;5010258;28;98232;-75
2022/12/24 10:44:15;;;;;;;41.83;8.00;;;;;;;;;;5010454;28;99429;-76
2022/12/24 10:46:42;;;;;;;48.35;8.73;;;;;;;;;;5012463;28;100193;-76
2022/12/24 10:49:14;;;;;;;52.80;8.45;;;;;;;;;;5010322;28;99412;-76
2022/12/24 10:51:50;;;;;;;35.83;6.72;;;;;;;;;;5010546;28;99690;-75
2022/12/24 10:54:20;;;;;;;49.20;7.57;;;;;;;;;;5009836;28;98423;-76
2022/12/24 10:56:58;;;;;;;36.35;7.22;;;;;;;;;;5009959;28;99729;-77
2022/12/24 10:59:29;;;;;;;45.55;8.27;;;;;;;;;;5009810;28;100131;-76
2022/12/24 11:01:57;;;;;;;40.22;7.22;;;;;;;;;;5008528;28;98374;-76
2022/12/24 11:04:25;;;;;;;46.08;7.63;;;;;;;;;;5009679;28;100152;-77
2022/12/24 11:06:52;;;;;;;39.33;6.47;;;;;;;;;;5012984;28;100444;-77
2022/12/24 11:09:20;;;;;;;47.22;7.60;;;;;;;;;;5009903;28;98327;-76
2022/12/24 11:11:47;;;;;;;33.40;6.15;;;;;;;;;;5008773;28;99339;-76
2022/12/24 11:14:16;;;;;;;36.42;6.35;;;;;;;;;;5009084;28;98671;-75
2022/12/24 11:16:50;;;;;;;39.67;6.47;;;;;;;;;;5009296;28;98808;-76
2022/12/24 11:19:18;;;;;;;41.70;6.65;;;;;;;;;;5009887;28;100053;-77
2022/12/24 11:21:45;;;;;;;34.80;6.45;;;;;;;;;;5009064;28;98241;-77
2022/12/24 11:24:11;;;;;;;35.35;5.47;;;;;;;;;;5009550;28;98450;-77
2022/12/24 11:26:38;;;;;;;38.47;8.55;;;;;;;;;;5008144;28;99243;-77
2022/12/24 11:29:10;;;;;;;48.22;8.05;;;;;;;;;;5012029;28;98419;-77
2022/12/24 11:31:37;;;;;;;38.63;6.53;;;;;;;;;;5009055;28;100009;-76
2022/12/24 11:34:22;;;;;;;41.42;8.05;;;;;;;;;;5009563;28;98350;-75
2022/12/24 11:36:49;;;;;;;37.72;6.63;;;;;;;;;;5008458;28;98778;-77
2022/12/24 11:39:20;;;;;;;36.50;6.05;;;;;;;;;;5009301;28;100142;-76
2022/12/24 11:41:47;;;;;;;38.47;7.10;;;;;;;;;;5009088;28;98359;-76
2022/12/24 11:44:13;;;;;;;28.60;5.53;;;;;;;;;;5008842;28;99883;-75
2022/12/24 11:46:42;;;;;;;38.42;6.43;;;;;;;;;;5008831;28;100011;-75
2022/12/24 11:49:11;;;;;;;28.35;5.75;;;;;;;;;;5008935;28;98151;-77
2022/12/24 11:51:39;;;;;;;34.72;6.30;;;;;;;;;;5010098;28;99176;-77
2022/12/24 11:54:11;;;;;;;38.83;6.18;;;;;;;;;;5009226;28;98347;-76
2022/12/24 11:56:40;;;;;;;31.10;5.90;;;;;;;;;;5008117;28;99147;-76
2022/12/24 11:59:10;;;;;;;38.20;6.03;;;;;;;;;;5008836;28;99954;-76
2022/12/24 12:01:45;;;;;;;43.55;6.50;;;;;;;;;;5008956;28;98872;-76
2022/12/24 12:04:11;;;;;;;28.77;5.50;;;;;;;;;;5008527;28;99692;-76
2022/12/24 12:06:46;;;;;;;35.33;5.53;;;;;;;;;;5008288;28;99095;-76
2022/12/24 12:09:27;;;;;;;33.42;6.55;;;;;;;;;;5008955;28;99326;-76
2022/12/24 12:12:07;;;;;;;30.73;5.18;;;;;;;;;;5008394;28;99892;-77
2022/12/24 12:14:36;;;;;;;36.45;5.25;;;;;;;;;;5011529;28;99216;-76
2022/12/24 12:17:13;;;;;;;25.00;5.55;;;;;;;;;;5007821;28;99806;-76
2022/12/24 12:19:48;;;;;;;33.88;5.57;;;;;;;;;;5007703;28;99054;-76
2022/12/24 12:22:28;;;;;;;36.83;5.55;;;;;;;;;;5008847;28;98192;-76
2022/12/24 12:24:55;;;;;;;29.58;4.93;;;;;;;;;;5008346;28;99475;-76
2022/12/24 12:27:22;;;;;;;29.70;4.85;;;;;;;;;;5008487;28;100226;-77
2022/12/24 12:29:51;;;;;;;29.67;5.65;;;;;;;;;;5008351;28;98304;-76
2022/12/24 12:32:24;;;;;;;32.10;5.75;;;;;;;;;;5008081;28;99633;-76
2022/12/24 12:34:55;;;;;;;32.28;4.88;;;;;;;;;;5008240;28;98943;-76
2022/12/24 12:37:29;;;;;;;36.60;4.68;;;;;;;;;;5012031;28;98176;-77
2022/12/24 12:39:56;;;;;;;25.05;4.60;;;;;;;;;;5008276;28;99526;-76
2022/12/24 12:42:32;;;;;;;20.52;4.63;;;;;;;;;;5008067;28;98269;-76
2022/12/24 12:45:17;;;;;;;26.10;4.63;;;;;;;;;;5008753;28;99248;-75
2022/12/24 12:48:00;;;;;;;30.45;4.93;;;;;;;;;;5007532;28;100085;-76
2022/12/24 12:50:26;;;;;;;18.40;4.68;;;;;;;;;;5007727;28;98275;-76
2022/12/24 12:52:55;;;;;;;30.67;5.60;;;;;;;;;;5007350;28;98880;-75
2022/12/24 12:55:30;;;;;;;23.88;4.25;;;;;;;;;;5008096;28;99640;-77
2022/12/24 12:58:00;;;;;;;27.02;5.40;;;;;;;;;;5008079;28;98299;-76
2022/12/24 13:00:34;;;;;;;24.92;4.85;;;;;;;;;;5010174;28;98510;-76
2022/12/24 13:03:13;;;;;;;25.95;5.60;;;;;;;;;;5005628;28;98549;-76
2022/12/24 13:05:58;;;;;;;29.55;5.70;;;;;;;;;;5007339;28;98486;-76
2022/12/24 13:08:27;;;;;;;34.85;5.45;;;;;;;;;;5005950;28;100269;-76
2022/12/24 13:11:04;;;;;;;16.92;3.70;;;;;;;;;;5007972;28;98258;-76
2022/12/24 13:13:34;;;;;;;27.42;3.78;;;;;;;;;;5007735;28;99920;-76
2022/12/24 13:16:09;;;;;;;32.38;5.78;;;;;;;;;;5006991;28;100135;-75
2022/12/24 13:18:50;;;;;;;31.95;5.82;;;;;;;;;;5007355;28;98277;-75
2022/12/24 13:21:24;;;;;;;24.33;5.20;;;;;;;;;;5010137;28;98993;-77
2022/12/24 13:24:03;;;;;;;37.30;4.65;;;;;;;;;;5007672;28;98392;-76
2022/12/24 13:26:29;;;;;;;28.05;4.97;;;;;;;;;;5008139;28;99471;-76
2022/12/24 13:29:15;;;;;;;24.88;4.32;;;;;;;;;;5006943;28;99839;-76
2022/12/24 13:31:42;;;;;;;35.05;5.13;;;;;;;;;;5006838;28;98424;-75
2022/12/24 13:34:28;;;;;;;25.83;4.93;;;;;;;;;;5006495;28;99271;-76
2022/12/24 13:37:02;;;;;;;27.77;4.97;;;;;;;;;;5006794;28;100229;-76
2022/12/24 13:39:49;;;;;;;23.30;4.65;;;;;;;;;;5007256;28;98303;-76
2022/12/24 13:42:35;;;;;;;25.27;4.60;;;;;;;;;;5006579;28;99537;-75
2022/12/24 13:45:20;;;;;;;33.15;4.75;;;;;;;;;;5010610;28;98927;-76
2022/12/24 13:47:46;;;;;;;31.08;4.47;;;;;;;;;;5007227;28;99662;-76
2022/12/24 13:50:21;;;;;;;25.40;7.20;;;;;;;;;;5006829;28;100039;-76
2022/12/24 13:52:51;;;;;;;31.48;5.70;;;;;;;;;;5006954;28;98726;-76
2022/12/24 13:55:18;;;;;;;27.65;4.70;;;;;;;;;;5007453;28;99690;-76
2022/12/24 13:58:13;;;;;;;21.48;4.47;;;;;;;;;;5006371;28;100158;-75
2022/12/24 14:00:42;;;;;;;35.03;4.93;;;;;;;;;;4992620;28;98489;-76
2022/12/24 14:03:11;;;;;;;31.92;4.88;;;;;;;;;;5005741;28;99209;-76
2022/12/24 14:05:43;;;;;;;28.67;5.10;;;;;;;;;;5006280;28;98947;-77
2022/12/24 14:08:11;;;;;;;29.77;4.63;;;;;;;;;;5009720;28;98306;-77
2022/12/24 14:10:39;;;;;;;23.25;4.10;;;;;;;;;;5004543;28;100294;-76
2022/12/24 14:13:26;;;;;;;26.35;4.90;;;;;;;;;;5008271;28;98288;-78
2022/12/24 14:15:55;;;;;;;26.08;5.20;;;;;;;;;;5013252;28;99944;-77
2022/12/24 14:18:23;;;;;;;21.08;4.60;;;;;;;;;;5013198;28;100060;-76
2022/12/24 14:20:51;;;;;;;27.88;5.68;;;;;;;;;;5013647;28;98286;-75
2022/12/24 14:23:27;;;;;;;31.60;5.65;;;;;;;;;;5013819;28;99441;-76
2022/12/24 14:25:53;;;;;;;32.67;5.38;;;;;;;;;;5012420;28;100297;-77
2022/12/24 14:28:23;;;;;;;21.58;4.82;;;;;;;;;;5013354;28;98343;-77
2022/12/24 14:30:59;;;;;;;32.25;5.78;;;;;;;;;;5016619;28;99586;-75
2022/12/24 14:33:32;;;;;;;26.42;5.25;;;;;;;;;;5013433;28;98204;-78
2022/12/24 14:36:00;;;;;;;26.67;4.75;;;;;;;;;;5013367;28;99965;-77
2022/12/24 14:38:28;;;;;;;30.45;5.70;;;;;;;;;;5012304;28;99575;-77
2022/12/24 14:41:00;;;;;;;26.23;5.18;;;;;;;;;;5013252;28;98273;-77
2022/12/24 14:43:32;;;;;;;28.20;5.95;;;;;;;;;;5013447;28;98625;-77